Time;durP1;ratioP1;P1;durP2;ratioP2;P2;SDS_P1;SDS_P2;PMS_P1;PMS_P2;Temp;Humidity;BMP_temperature;BMP_pressure;BME280_temperature;BME280_humidity;BME280_pressure;Samples;Min_cycle;Max_cycle;Signal;HPM_P1;HPM_P2
2022/10/13 00:01:15;;;;;;;21.83;16.48;;;;;;;;;;4970131;28;20055;-66
2022/10/13 00:03:41;;;;;;;29.30;19.52;;;;;;;;;;4968269;28;20030;-65
2022/10/13 00:06:07;;;;;;;24.75;16.42;;;;;;;;;;4971585;28;20478;-65
2022/10/13 00:08:33;;;;;;;28.38;16.08;;;;;;;;;;4970959;28;20082;-65
2022/10/13 00:10:59;;;;;;;27.13;17.50;;;;;;;;;;4974109;28;20532;-65
2022/10/13 00:13:25;;;;;;;29.50;17.52;;;;;;;;;;4975222;28;20069;-65
2022/10/13 00:15:50;;;;;;;24.80;17.40;;;;;;;;;;4975626;28;20492;-65
2022/10/13 00:18:15;;;;;;;27.65;17.67;;;;;;;;;;4975073;28;20659;-65
2022/10/13 00:20:45;;;;;;;27.77;18.23;;;;;;;;;;4971004;28;20053;-65
2022/10/13 00:23:12;;;;;;;27.20;18.77;;;;;;;;;;4971546;28;20030;-65
2022/10/13 00:25:44;;;;;;;26.02;16.80;;;;;;;;;;4974564;28;20085;-65
2022/10/13 00:28:10;;;;;;;25.58;18.05;;;;;;;;;;4962672;28;20042;-65
2022/10/13 00:30:36;;;;;;;28.63;17.92;;;;;;;;;;4975059;28;20038;-65
2022/10/13 00:33:01;;;;;;;27.08;18.02;;;;;;;;;;4975530;28;20029;-65
2022/10/13 00:35:26;;;;;;;27.77;17.83;;;;;;;;;;4971639;28;20598;-67
2022/10/13 00:37:52;;;;;;;24.40;17.75;;;;;;;;;;4956886;28;20042;-65
2022/10/13 00:40:17;;;;;;;25.90;17.67;;;;;;;;;;4973994;28;20034;-65
2022/10/13 00:42:43;;;;;;;27.50;17.23;;;;;;;;;;4975569;28;20494;-66
2022/10/13 00:45:18;;;;;;;25.27;17.88;;;;;;;;;;4974374;28;20073;-66
2022/10/13 00:47:45;;;;;;;24.25;17.63;;;;;;;;;;4974681;28;20064;-65
2022/10/13 00:50:13;;;;;;;23.58;15.93;;;;;;;;;;4973646;28;20035;-66
2022/10/13 00:52:40;;;;;;;23.15;17.30;;;;;;;;;;4974459;28;20137;-64
2022/10/13 00:55:06;;;;;;;23.73;16.60;;;;;;;;;;4974642;28;20669;-65
2022/10/13 00:57:32;;;;;;;24.08;16.23;;;;;;;;;;4973911;28;20018;-65
2022/10/13 00:59:58;;;;;;;25.20;16.77;;;;;;;;;;4944298;28;20026;-65
2022/10/13 01:02:26;;;;;;;24.27;17.13;;;;;;;;;;4963927;28;20033;-67
2022/10/13 01:04:51;;;;;;;26.70;17.52;;;;;;;;;;4974218;28;20022;-65
2022/10/13 01:07:17;;;;;;;25.33;17.55;;;;;;;;;;4974460;28;20429;-65
2022/10/13 01:09:44;;;;;;;25.55;17.13;;;;;;;;;;4974993;28;20054;-65
2022/10/13 01:12:15;;;;;;;28.33;17.63;;;;;;;;;;4971974;28;20027;-66
2022/10/13 01:14:40;;;;;;;29.83;17.20;;;;;;;;;;4974868;28;20023;-64
2022/10/13 01:17:05;;;;;;;24.98;17.08;;;;;;;;;;4973601;28;20926;-65
2022/10/13 01:19:36;;;;;;;26.95;17.50;;;;;;;;;;4972980;28;20023;-65
2022/10/13 01:22:10;;;;;;;21.90;15.82;;;;;;;;;;4973099;28;20026;-64
2022/10/13 01:24:41;;;;;;;26.13;17.47;;;;;;;;;;4972966;28;20027;-65
2022/10/13 01:27:11;;;;;;;26.73;18.00;;;;;;;;;;4972409;28;20033;-64
2022/10/13 01:29:51;;;;;;;25.85;16.20;;;;;;;;;;4972600;28;20541;-64
2022/10/13 01:32:20;;;;;;;26.27;17.27;;;;;;;;;;4974372;28;20137;-64
2022/10/13 01:34:45;;;;;;;30.55;20.08;;;;;;;;;;4974067;28;21191;-64
2022/10/13 01:37:31;;;;;;;28.03;18.03;;;;;;;;;;4973378;28;20029;-67
2022/10/13 01:40:08;;;;;;;27.40;18.75;;;;;;;;;;4972230;28;20034;-64
2022/10/13 01:42:37;;;;;;;26.08;18.95;;;;;;;;;;4973516;28;20404;-66
2022/10/13 01:45:03;;;;;;;27.50;18.05;;;;;;;;;;4973279;28;20037;-65
2022/10/13 01:47:30;;;;;;;26.67;18.55;;;;;;;;;;4971078;28;20034;-64
2022/10/13 01:49:56;;;;;;;26.42;17.65;;;;;;;;;;4950358;28;20707;-65
2022/10/13 01:52:23;;;;;;;26.02;18.02;;;;;;;;;;4970341;28;20104;-65
2022/10/13 01:54:52;;;;;;;26.25;17.67;;;;;;;;;;4971639;28;20611;-64
2022/10/13 01:57:31;;;;;;;26.20;18.80;;;;;;;;;;4972518;28;20034;-65
2022/10/13 02:00:07;;;;;;;28.30;17.50;;;;;;;;;;4972632;28;20018;-65
2022/10/13 02:02:42;;;;;;;25.17;18.13;;;;;;;;;;4976272;28;20605;-65
2022/10/13 02:05:22;;;;;;;25.48;18.17;;;;;;;;;;4971135;28;20034;-65
2022/10/13 02:07:51;;;;;;;26.13;17.40;;;;;;;;;;4960299;28;20641;-67
2022/10/13 02:10:26;;;;;;;28.55;18.90;;;;;;;;;;4973105;28;20014;-64
2022/10/13 02:12:59;;;;;;;27.23;17.92;;;;;;;;;;4973614;28;20058;-65
2022/10/13 02:15:29;;;;;;;27.80;19.42;;;;;;;;;;4971723;28;20120;-65
2022/10/13 02:17:55;;;;;;;30.33;20.13;;;;;;;;;;4971428;28;20022;-65
2022/10/13 02:20:20;;;;;;;27.83;19.67;;;;;;;;;;4971549;28;20034;-64
2022/10/13 02:22:47;;;;;;;26.35;17.90;;;;;;;;;;4971498;28;20054;-65
2022/10/13 02:25:13;;;;;;;29.77;21.17;;;;;;;;;;4971312;28;20027;-64
2022/10/13 02:27:39;;;;;;;28.83;20.10;;;;;;;;;;4971785;28;20558;-66
2022/10/13 02:30:04;;;;;;;28.93;18.60;;;;;;;;;;4972301;28;20105;-64
2022/10/13 02:32:29;;;;;;;33.00;20.83;;;;;;;;;;4968091;28;20042;-65
2022/10/13 02:34:55;;;;;;;32.20;18.73;;;;;;;;;;4971969;28;20077;-65
2022/10/13 02:37:20;;;;;;;28.77;19.40;;;;;;;;;;4972121;28;20116;-65
2022/10/13 02:39:45;;;;;;;29.08;20.25;;;;;;;;;;4972704;28;20589;-65
2022/10/13 02:42:10;;;;;;;30.02;19.25;;;;;;;;;;4971098;28;20034;-65
2022/10/13 02:44:36;;;;;;;32.15;20.17;;;;;;;;;;4969999;28;20117;-64
2022/10/13 02:47:01;;;;;;;29.95;20.05;;;;;;;;;;4954983;28;20058;-65
2022/10/13 02:49:26;;;;;;;29.23;19.90;;;;;;;;;;4961544;28;20057;-65
2022/10/13 02:51:52;;;;;;;28.20;19.75;;;;;;;;;;4971907;28;20038;-65
2022/10/13 02:54:17;;;;;;;33.17;20.20;;;;;;;;;;4971609;28;20535;-65
2022/10/13 02:56:42;;;;;;;30.55;19.30;;;;;;;;;;4970994;28;20053;-65
2022/10/13 02:59:08;;;;;;;27.88;18.65;;;;;;;;;;4963747;28;20027;-65
2022/10/13 03:01:34;;;;;;;26.20;18.27;;;;;;;;;;4971712;28;20026;-65
2022/10/13 03:03:59;;;;;;;26.75;18.23;;;;;;;;;;4971186;28;20117;-64
2022/10/13 03:06:25;;;;;;;27.73;19.90;;;;;;;;;;4971249;28;20026;-65
2022/10/13 03:08:50;;;;;;;28.92;19.20;;;;;;;;;;4971453;28;20053;-65
2022/10/13 03:11:15;;;;;;;27.77;18.75;;;;;;;;;;4955023;28;20018;-65
2022/10/13 03:13:40;;;;;;;29.27;18.35;;;;;;;;;;4970909;28;20058;-65
2022/10/13 03:16:06;;;;;;;31.08;19.85;;;;;;;;;;4970692;28;20058;-65
2022/10/13 03:18:31;;;;;;;24.63;18.60;;;;;;;;;;4970142;28;20034;-67
2022/10/13 03:20:57;;;;;;;25.10;18.60;;;;;;;;;;4968594;28;20031;-65
2022/10/13 03:23:23;;;;;;;23.70;17.30;;;;;;;;;;4968977;28;20027;-66
2022/10/13 03:25:48;;;;;;;22.30;17.55;;;;;;;;;;4971750;28;20026;-70
2022/10/13 03:28:13;;;;;;;27.85;18.13;;;;;;;;;;4943540;28;20037;-66
2022/10/13 03:30:38;;;;;;;23.63;18.35;;;;;;;;;;4972541;28;20041;-72
2022/10/13 03:33:04;;;;;;;25.92;18.67;;;;;;;;;;4972997;28;20383;-71
2022/10/13 03:35:30;;;;;;;25.20;18.08;;;;;;;;;;4972072;28;20023;-71
2022/10/13 03:37:55;;;;;;;26.45;18.15;;;;;;;;;;4972526;28;20050;-72
2022/10/13 03:40:20;;;;;;;26.42;18.10;;;;;;;;;;4972528;28;20046;-72
2022/10/13 03:42:46;;;;;;;28.73;18.95;;;;;;;;;;4972270;28;20038;-71
2022/10/13 03:45:11;;;;;;;28.65;19.42;;;;;;;;;;4968802;28;20038;-72
2022/10/13 03:47:36;;;;;;;27.33;19.65;;;;;;;;;;4969206;28;20126;-72
2022/10/13 03:50:03;;;;;;;24.35;18.10;;;;;;;;;;4969083;28;20462;-71
2022/10/13 03:52:28;;;;;;;26.23;17.63;;;;;;;;;;4971616;28;20041;-71
2022/10/13 03:54:53;;;;;;;28.30;18.52;;;;;;;;;;4969105;28;20949;-71
2022/10/13 03:57:19;;;;;;;24.60;18.80;;;;;;;;;;4957519;28;20027;-71
2022/10/13 03:59:44;;;;;;;29.48;19.25;;;;;;;;;;4958680;28;20034;-71
2022/10/13 04:02:09;;;;;;;28.58;18.55;;;;;;;;;;4968650;28;20030;-71
2022/10/13 04:04:36;;;;;;;23.60;17.45;;;;;;;;;;4970818;28;20030;-70
2022/10/13 04:07:01;;;;;;;23.98;16.70;;;;;;;;;;4958480;28;20038;-71
2022/10/13 04:09:26;;;;;;;25.02;17.55;;;;;;;;;;4971909;28;20426;-73
2022/10/13 04:11:51;;;;;;;23.38;17.38;;;;;;;;;;4960010;28;20150;-71
2022/10/13 04:14:17;;;;;;;22.75;16.73;;;;;;;;;;4972457;28;20055;-71
2022/10/13 04:16:42;;;;;;;23.33;17.15;;;;;;;;;;4972794;28;20065;-71
2022/10/13 04:19:10;;;;;;;24.27;17.20;;;;;;;;;;4970078;28;20496;-71
2022/10/13 04:21:35;;;;;;;22.65;17.33;;;;;;;;;;4972271;28;20022;-70
2022/10/13 04:24:01;;;;;;;23.73;16.77;;;;;;;;;;4972380;28;20377;-72
2022/10/13 04:26:27;;;;;;;27.23;17.08;;;;;;;;;;4970740;28;20039;-71
2022/10/13 04:28:53;;;;;;;23.00;16.50;;;;;;;;;;4970277;28;20496;-70
2022/10/13 04:31:20;;;;;;;25.25;18.13;;;;;;;;;;4972503;28;20023;-70
2022/10/13 04:33:46;;;;;;;24.05;16.70;;;;;;;;;;4970816;28;20470;-70
2022/10/13 04:36:12;;;;;;;25.10;17.92;;;;;;;;;;4971180;28;20087;-71
2022/10/13 04:38:38;;;;;;;22.77;16.98;;;;;;;;;;4970922;28;20116;-66
2022/10/13 04:41:03;;;;;;;28.85;20.67;;;;;;;;;;4969806;28;20544;-63
2022/10/13 04:43:29;;;;;;;28.70;19.08;;;;;;;;;;4971534;28;20421;-64
2022/10/13 04:45:59;;;;;;;26.33;18.02;;;;;;;;;;4971028;28;20034;-64
2022/10/13 04:48:24;;;;;;;26.83;19.05;;;;;;;;;;4971496;28;20491;-64
2022/10/13 04:50:57;;;;;;;31.33;19.88;;;;;;;;;;4969475;28;20130;-63
2022/10/13 04:53:22;;;;;;;30.00;20.15;;;;;;;;;;4971104;28;20026;-63
2022/10/13 04:55:47;;;;;;;30.67;20.02;;;;;;;;;;4972337;28;20562;-61
2022/10/13 04:58:13;;;;;;;30.73;19.92;;;;;;;;;;4975821;28;20042;-62
2022/10/13 05:00:38;;;;;;;32.72;21.08;;;;;;;;;;4974451;28;20026;-62
2022/10/13 05:03:03;;;;;;;29.60;20.00;;;;;;;;;;4979187;28;20031;-63
2022/10/13 05:05:28;;;;;;;28.60;20.95;;;;;;;;;;4974646;28;20073;-64
2022/10/13 05:07:53;;;;;;;32.35;20.50;;;;;;;;;;4973036;28;20039;-64
2022/10/13 05:10:19;;;;;;;29.10;20.75;;;;;;;;;;4972372;28;20028;-67
2022/10/13 05:12:44;;;;;;;28.25;20.15;;;;;;;;;;4974390;28;20063;-63
2022/10/13 05:15:09;;;;;;;27.00;19.85;;;;;;;;;;4973279;28;20101;-62
2022/10/13 05:17:35;;;;;;;28.15;20.08;;;;;;;;;;4971325;28;20121;-64
2022/10/13 05:20:00;;;;;;;27.95;18.88;;;;;;;;;;4974278;28;20050;-61
2022/10/13 05:22:26;;;;;;;24.30;17.33;;;;;;;;;;4972778;28;20079;-62
2022/10/13 05:24:52;;;;;;;31.52;21.17;;;;;;;;;;4966810;28;20026;-61
2022/10/13 05:27:17;;;;;;;26.48;18.80;;;;;;;;;;4973911;28;20031;-62
2022/10/13 05:29:42;;;;;;;27.00;19.88;;;;;;;;;;4972736;28;20482;-62
2022/10/13 05:32:07;;;;;;;30.70;19.80;;;;;;;;;;4972977;28;20030;-62
2022/10/13 05:34:33;;;;;;;25.55;18.02;;;;;;;;;;4973847;28;20048;-62
2022/10/13 05:36:59;;;;;;;28.50;19.90;;;;;;;;;;4971767;28;20034;-63
2022/10/13 05:39:24;;;;;;;25.48;17.48;;;;;;;;;;4970513;28;20026;-61
2022/10/13 05:41:49;;;;;;;28.58;19.50;;;;;;;;;;4970201;28;20043;-62
2022/10/13 05:44:16;;;;;;;25.92;17.92;;;;;;;;;;4960658;28;20066;-61
2022/10/13 05:46:41;;;;;;;28.30;18.20;;;;;;;;;;4973341;28;20033;-62
2022/10/13 05:49:06;;;;;;;28.00;19.33;;;;;;;;;;4971747;28;20030;-61
2022/10/13 05:51:52;;;;;;;23.98;17.73;;;;;;;;;;4972461;28;20397;-61
2022/10/13 05:54:23;;;;;;;31.42;19.75;;;;;;;;;;4971831;28;20027;-61
2022/10/13 05:57:03;;;;;;;26.13;19.38;;;;;;;;;;4972576;28;20045;-61
2022/10/13 05:59:29;;;;;;;25.42;18.15;;;;;;;;;;4971355;28;20138;-61
2022/10/13 06:01:54;;;;;;;30.60;20.67;;;;;;;;;;4964840;28;20031;-61
2022/10/13 06:04:23;;;;;;;30.50;19.38;;;;;;;;;;4966753;28;20903;-61
2022/10/13 06:06:49;;;;;;;32.00;20.88;;;;;;;;;;4968584;28;20539;-62
2022/10/13 06:09:14;;;;;;;31.55;18.85;;;;;;;;;;4971757;28;20031;-59
2022/10/13 06:11:39;;;;;;;32.03;20.70;;;;;;;;;;4971698;28;20054;-60
2022/10/13 06:14:05;;;;;;;27.38;19.65;;;;;;;;;;4970700;28;20051;-61
2022/10/13 06:16:30;;;;;;;30.35;20.33;;;;;;;;;;4965401;28;20034;-61
2022/10/13 06:18:55;;;;;;;31.67;21.13;;;;;;;;;;4969721;28;20035;-61
2022/10/13 06:21:21;;;;;;;30.38;19.15;;;;;;;;;;4969915;28;20016;-62
2022/10/13 06:23:46;;;;;;;36.17;23.17;;;;;;;;;;4970916;28;20028;-61
2022/10/13 06:26:11;;;;;;;30.55;20.52;;;;;;;;;;4972161;28;20149;-61
2022/10/13 06:28:36;;;;;;;40.17;28.60;;;;;;;;;;4969663;28;20719;-61
2022/10/13 06:31:03;;;;;;;34.65;22.45;;;;;;;;;;4969488;28;20068;-60
2022/10/13 06:33:28;;;;;;;30.42;21.27;;;;;;;;;;4969074;28;20030;-60
2022/10/13 06:35:53;;;;;;;36.60;22.48;;;;;;;;;;4972650;28;20030;-61
2022/10/13 06:38:19;;;;;;;33.25;21.15;;;;;;;;;;4970971;28;20022;-62
2022/10/13 06:40:44;;;;;;;32.47;20.90;;;;;;;;;;4971791;28;20022;-60
2022/10/13 06:43:09;;;;;;;29.25;21.20;;;;;;;;;;4967581;28;20034;-61
2022/10/13 06:45:35;;;;;;;33.13;21.80;;;;;;;;;;4968642;28;20434;-61
2022/10/13 06:48:00;;;;;;;41.55;22.25;;;;;;;;;;4969007;28;20146;-61
2022/10/13 06:50:25;;;;;;;33.42;21.80;;;;;;;;;;4972543;28;20381;-61
2022/10/13 06:52:50;;;;;;;37.47;22.88;;;;;;;;;;4970038;28;20488;-61
2022/10/13 06:55:16;;;;;;;35.25;22.00;;;;;;;;;;4970772;28;20018;-61
2022/10/13 06:57:41;;;;;;;45.00;23.17;;;;;;;;;;4970996;28;20478;-61
2022/10/13 07:00:07;;;;;;;29.50;21.63;;;;;;;;;;4953957;28;20026;-61
2022/10/13 07:02:32;;;;;;;37.70;22.45;;;;;;;;;;4967517;28;20042;-60
2022/10/13 07:04:57;;;;;;;38.13;22.67;;;;;;;;;;4969715;28;20027;-60
2022/10/13 07:07:23;;;;;;;40.65;21.58;;;;;;;;;;4955903;28;20041;-60
2022/10/13 07:09:48;;;;;;;38.65;21.58;;;;;;;;;;4969714;28;20217;-61
2022/10/13 07:12:14;;;;;;;33.45;21.05;;;;;;;;;;4970310;28;20081;-60
2022/10/13 07:14:39;;;;;;;32.72;22.98;;;;;;;;;;4970239;28;20023;-60
2022/10/13 07:17:04;;;;;;;33.25;21.20;;;;;;;;;;4972138;28;20493;-61
2022/10/13 07:19:29;;;;;;;34.95;21.92;;;;;;;;;;4970287;28;20510;-60
2022/10/13 07:21:55;;;;;;;35.25;22.05;;;;;;;;;;4972071;28;20050;-62
2022/10/13 07:24:20;;;;;;;31.30;21.30;;;;;;;;;;4971504;28;20037;-61
2022/10/13 07:26:45;;;;;;;34.97;21.17;;;;;;;;;;4969946;28;20468;-61
2022/10/13 07:29:11;;;;;;;32.55;21.55;;;;;;;;;;4971848;28;20030;-61
2022/10/13 07:31:36;;;;;;;37.85;21.67;;;;;;;;;;4972317;28;20470;-60
2022/10/13 07:34:03;;;;;;;36.97;22.75;;;;;;;;;;4968372;28;20034;-61
2022/10/13 07:36:29;;;;;;;36.03;24.42;;;;;;;;;;4967941;28;20537;-61
2022/10/13 07:38:54;;;;;;;37.35;23.55;;;;;;;;;;4970958;28;20034;-62
2022/10/13 07:41:19;;;;;;;33.22;21.48;;;;;;;;;;4957301;28;20027;-62
2022/10/13 07:43:44;;;;;;;37.08;23.17;;;;;;;;;;4970991;28;20045;-62
2022/10/13 07:46:11;;;;;;;38.88;22.67;;;;;;;;;;4970371;28;20042;-61
2022/10/13 07:48:36;;;;;;;40.83;24.17;;;;;;;;;;4971859;28;20121;-62
2022/10/13 07:51:02;;;;;;;41.13;24.42;;;;;;;;;;4969126;28;20035;-61
2022/10/13 07:53:28;;;;;;;38.55;23.23;;;;;;;;;;4965895;28;20023;-60
2022/10/13 07:55:53;;;;;;;38.42;22.35;;;;;;;;;;4968653;28;20038;-59
2022/10/13 07:58:18;;;;;;;38.47;24.25;;;;;;;;;;4968774;28;20094;-62
2022/10/13 08:00:44;;;;;;;43.35;24.67;;;;;;;;;;4965066;28;20130;-62
2022/10/13 08:03:09;;;;;;;40.05;24.38;;;;;;;;;;4968822;28;20026;-61
2022/10/13 08:05:35;;;;;;;41.22;26.02;;;;;;;;;;4969175;28;20042;-61
2022/10/13 08:08:01;;;;;;;40.90;23.30;;;;;;;;;;4969238;28;20030;-60
2022/10/13 08:10:28;;;;;;;44.00;23.88;;;;;;;;;;4969833;28;20109;-61
2022/10/13 08:12:53;;;;;;;36.70;23.38;;;;;;;;;;4971209;28;20062;-60
2022/10/13 08:15:18;;;;;;;44.58;23.95;;;;;;;;;;4971225;28;20026;-60
2022/10/13 08:17:43;;;;;;;41.20;25.55;;;;;;;;;;4970950;28;20027;-61
2022/10/13 08:20:09;;;;;;;41.42;26.08;;;;;;;;;;4964654;28;20033;-61
2022/10/13 08:22:35;;;;;;;34.90;22.38;;;;;;;;;;4966141;28;20033;-61
2022/10/13 08:25:03;;;;;;;37.20;22.58;;;;;;;;;;4969691;28;20033;-61
2022/10/13 08:27:28;;;;;;;39.30;24.77;;;;;;;;;;4970290;28;20126;-61
2022/10/13 08:29:53;;;;;;;36.15;24.30;;;;;;;;;;4967578;28;20088;-61
2022/10/13 08:32:19;;;;;;;38.08;23.13;;;;;;;;;;4973315;28;20062;-60
2022/10/13 08:34:45;;;;;;;40.97;24.88;;;;;;;;;;4957762;28;20022;-60
2022/10/13 08:37:12;;;;;;;38.03;23.55;;;;;;;;;;4973520;28;20022;-60
2022/10/13 08:39:38;;;;;;;37.08;24.02;;;;;;;;;;4973803;28;20026;-61
2022/10/13 08:42:11;;;;;;;44.38;26.65;;;;;;;;;;4971958;28;20040;-61
2022/10/13 08:44:38;;;;;;;51.38;30.92;;;;;;;;;;4972476;28;20030;-64
2022/10/13 08:47:04;;;;;;;38.95;24.25;;;;;;;;;;4963753;28;20046;-61
2022/10/13 08:49:29;;;;;;;43.95;25.45;;;;;;;;;;4973336;28;20061;-60
2022/10/13 08:51:58;;;;;;;40.30;24.75;;;;;;;;;;4974183;28;20031;-61
2022/10/13 08:54:24;;;;;;;36.28;23.35;;;;;;;;;;4972908;28;20035;-60
2022/10/13 08:56:50;;;;;;;41.75;24.15;;;;;;;;;;4972289;28;20046;-61
2022/10/13 08:59:17;;;;;;;37.45;24.42;;;;;;;;;;4972819;28;20042;-61
2022/10/13 09:01:47;;;;;;;45.58;26.63;;;;;;;;;;4974762;28;20033;-62
2022/10/13 09:04:16;;;;;;;34.42;23.40;;;;;;;;;;4972820;28;20050;-61
2022/10/13 09:06:47;;;;;;;32.63;21.85;;;;;;;;;;4973988;28;20031;-61
2022/10/13 09:09:14;;;;;;;30.55;19.70;;;;;;;;;;4972982;28;20039;-62
2022/10/13 09:11:40;;;;;;;27.45;19.40;;;;;;;;;;4974648;28;20056;-62
2022/10/13 09:14:07;;;;;;;32.58;21.70;;;;;;;;;;4973203;28;20051;-62
2022/10/13 09:16:39;;;;;;;34.80;21.35;;;;;;;;;;4971793;28;20039;-61
2022/10/13 09:19:23;;;;;;;33.22;22.55;;;;;;;;;;4969383;28;20549;-62
2022/10/13 09:21:49;;;;;;;35.05;22.38;;;;;;;;;;4970971;28;20022;-61
2022/10/13 09:24:16;;;;;;;33.60;22.10;;;;;;;;;;4970640;28;20122;-61
2022/10/13 09:26:42;;;;;;;36.45;22.52;;;;;;;;;;4968432;28;20026;-61
2022/10/13 09:29:16;;;;;;;29.60;20.90;;;;;;;;;;4972577;28;20035;-61
2022/10/13 09:31:41;;;;;;;29.45;20.15;;;;;;;;;;4973162;28;20030;-61
2022/10/13 09:34:23;;;;;;;28.90;20.50;;;;;;;;;;4970373;28;20034;-63
2022/10/13 09:36:55;;;;;;;28.55;20.70;;;;;;;;;;4967317;28;20035;-62
2022/10/13 09:39:20;;;;;;;29.95;19.95;;;;;;;;;;4963619;28;20319;-63
2022/10/13 09:41:45;;;;;;;30.83;20.45;;;;;;;;;;4948664;28;20030;-64
2022/10/13 09:44:10;;;;;;;28.65;21.27;;;;;;;;;;4971768;28;20098;-63
2022/10/13 09:46:54;;;;;;;33.38;21.77;;;;;;;;;;4972301;28;20043;-62
2022/10/13 09:49:31;;;;;;;31.58;20.10;;;;;;;;;;4972684;28;20022;-62
2022/10/13 09:52:24;;;;;;;31.70;20.85;;;;;;;;;;4971551;28;20030;-64
2022/10/13 09:54:50;;;;;;;31.27;20.33;;;;;;;;;;4969151;28;20101;-64
2022/10/13 09:57:28;;;;;;;33.50;21.27;;;;;;;;;;4967059;28;20026;-62
2022/10/13 10:00:15;;;;;;;45.78;21.25;;;;;;;;;;4969917;28;20031;-63
2022/10/13 10:02:41;;;;;;;28.10;20.67;;;;;;;;;;4973648;28;20030;-61
2022/10/13 10:05:15;;;;;;;28.60;20.80;;;;;;;;;;4971291;28;20503;-61
2022/10/13 10:07:41;;;;;;;31.42;20.55;;;;;;;;;;4970362;28;20034;-63
2022/10/13 10:10:14;;;;;;;34.72;21.52;;;;;;;;;;4967560;28;20666;-65
2022/10/13 10:12:40;;;;;;;28.85;20.98;;;;;;;;;;4969335;28;20493;-65
2022/10/13 10:15:19;;;;;;;32.25;23.30;;;;;;;;;;4953898;28;20062;-65
2022/10/13 10:17:53;;;;;;;29.05;21.15;;;;;;;;;;4967098;28;20515;-64
2022/10/13 10:20:57;;;;;;;30.77;20.85;;;;;;;;;;4949865;28;20062;-64
2022/10/13 10:23:22;;;;;;;32.50;21.00;;;;;;;;;;4897384;29;20033;-64
2022/10/13 10:25:49;;;;;;;32.20;21.63;;;;;;;;;;4893758;29;20080;-65
2022/10/13 10:28:30;;;;;;;32.05;22.42;;;;;;;;;;4893329;29;20037;-64
2022/10/13 10:30:58;;;;;;;32.63;21.98;;;;;;;;;;4896924;29;20061;-64
2022/10/13 10:33:39;;;;;;;28.00;19.17;;;;;;;;;;4892013;29;20296;-64
2022/10/13 10:36:15;;;;;;;31.77;21.85;;;;;;;;;;4893322;29;20035;-63
2022/10/13 10:38:47;;;;;;;40.25;25.23;;;;;;;;;;4896589;29;20107;-63
2022/10/13 10:41:30;;;;;;;41.80;29.13;;;;;;;;;;4893696;29;20069;-64
2022/10/13 10:44:01;;;;;;;31.27;22.02;;;;;;;;;;4891978;29;20668;-63
2022/10/13 10:46:33;;;;;;;28.08;20.08;;;;;;;;;;4894964;29;20063;-63
2022/10/13 10:49:00;;;;;;;33.50;23.33;;;;;;;;;;4885144;29;20036;-63
2022/10/13 10:51:29;;;;;;;37.63;22.75;;;;;;;;;;4893521;29;20239;-63
2022/10/13 10:54:13;;;;;;;29.55;21.08;;;;;;;;;;4920489;28;20034;-62
2022/10/13 10:56:41;;;;;;;33.42;22.90;;;;;;;;;;4971853;28;20034;-62
2022/10/13 10:59:22;;;;;;;33.40;22.55;;;;;;;;;;4971941;28;20106;-64
2022/10/13 11:02:05;;;;;;;30.80;21.35;;;;;;;;;;4972221;28;20026;-64
2022/10/13 11:04:34;;;;;;;31.25;19.75;;;;;;;;;;4970089;28;20027;-64
2022/10/13 11:07:00;;;;;;;31.73;22.52;;;;;;;;;;4969138;28;20031;-63
2022/10/13 11:09:57;;;;;;;29.88;20.77;;;;;;;;;;4968061;28;20030;-64
2022/10/13 11:12:23;;;;;;;37.05;22.55;;;;;;;;;;4936727;28;20057;-63
2022/10/13 11:14:57;;;;;;;35.83;23.95;;;;;;;;;;4969892;28;20022;-64
2022/10/13 11:17:27;;;;;;;38.42;24.58;;;;;;;;;;4967215;28;20065;-65
2022/10/13 11:19:52;;;;;;;32.72;22.75;;;;;;;;;;4968355;28;20031;-61
2022/10/13 11:22:19;;;;;;;26.60;21.85;;;;;;;;;;4945360;28;20082;-64
2022/10/13 11:24:46;;;;;;;34.25;24.52;;;;;;;;;;4969143;28;20037;-63
2022/10/13 11:27:14;;;;;;;38.70;24.08;;;;;;;;;;4953958;28;20037;-64
2022/10/13 11:29:45;;;;;;;38.55;24.23;;;;;;;;;;4971016;28;20022;-63
2022/10/13 11:32:26;;;;;;;41.60;27.20;;;;;;;;;;4970415;28;20026;-67
2022/10/13 11:35:00;;;;;;;45.40;27.00;;;;;;;;;;4969948;28;20026;-63
2022/10/13 11:37:44;;;;;;;45.88;26.17;;;;;;;;;;4970573;28;20022;-65
2022/10/13 11:40:22;;;;;;;42.08;24.83;;;;;;;;;;4972142;28;20537;-63
2022/10/13 11:43:02;;;;;;;39.28;26.35;;;;;;;;;;4972477;28;20061;-64
2022/10/13 11:45:36;;;;;;;42.88;27.23;;;;;;;;;;4972311;28;20089;-63
2022/10/13 11:48:07;;;;;;;35.25;25.73;;;;;;;;;;4971497;28;20026;-63
2022/10/13 11:50:51;;;;;;;42.05;26.20;;;;;;;;;;4970466;28;20042;-64
2022/10/13 11:53:18;;;;;;;42.35;28.15;;;;;;;;;;4972172;28;20026;-63
2022/10/13 11:55:50;;;;;;;43.90;28.17;;;;;;;;;;4971445;28;20038;-63
2022/10/13 11:58:15;;;;;;;47.38;28.83;;;;;;;;;;4970694;28;20026;-64
2022/10/13 12:01:00;;;;;;;45.10;27.30;;;;;;;;;;4973149;28;20050;-65
2022/10/13 12:03:25;;;;;;;40.50;27.95;;;;;;;;;;4972629;28;20102;-63
2022/10/13 12:05:51;;;;;;;46.28;28.08;;;;;;;;;;4971826;28;20037;-64
2022/10/13 12:08:17;;;;;;;49.38;27.27;;;;;;;;;;4976087;28;20030;-65
2022/10/13 12:10:42;;;;;;;43.30;27.90;;;;;;;;;;4974697;28;20027;-63
2022/10/13 12:13:18;;;;;;;44.22;28.92;;;;;;;;;;4976202;28;20503;-62
2022/10/13 12:15:44;;;;;;;47.40;27.50;;;;;;;;;;4975234;28;20014;-62
2022/10/13 12:18:23;;;;;;;42.35;26.58;;;;;;;;;;4973408;28;20034;-62
2022/10/13 12:20:58;;;;;;;43.05;25.73;;;;;;;;;;4975563;28;20554;-63
2022/10/13 12:23:25;;;;;;;49.47;29.08;;;;;;;;;;4974632;28;20051;-62
2022/10/13 12:25:55;;;;;;;44.88;26.52;;;;;;;;;;4977379;28;20105;-63
2022/10/13 12:28:22;;;;;;;44.38;27.13;;;;;;;;;;4975576;28;20037;-63
2022/10/13 12:30:52;;;;;;;51.35;29.65;;;;;;;;;;4975788;28;20034;-63
2022/10/13 12:33:37;;;;;;;45.42;27.95;;;;;;;;;;4974331;28;20474;-63
2022/10/13 12:36:19;;;;;;;44.80;28.33;;;;;;;;;;4971192;28;20039;-63
2022/10/13 12:38:47;;;;;;;49.17;27.55;;;;;;;;;;4971231;28;20038;-63
2022/10/13 12:41:15;;;;;;;50.90;29.88;;;;;;;;;;4970643;28;20027;-63
2022/10/13 12:43:41;;;;;;;39.67;27.17;;;;;;;;;;4973470;28;20426;-63
2022/10/13 12:46:08;;;;;;;47.28;27.85;;;;;;;;;;4975722;28;20513;-63
2022/10/13 12:48:35;;;;;;;40.95;25.67;;;;;;;;;;4975097;28;20026;-62
2022/10/13 12:51:20;;;;;;;44.17;27.05;;;;;;;;;;4975287;28;20019;-63
2022/10/13 12:53:45;;;;;;;;;;;;;;;;;;4976180;28;20046;-63
2022/10/13 12:56:24;;;;;;;49.90;27.25;;;;;;;;;;4974553;28;19921;-63
2022/10/13 12:58:50;;;;;;;46.70;26.17;;;;;;;;;;4975697;28;20022;-65
2022/10/13 13:01:26;;;;;;;46.72;28.63;;;;;;;;;;4974383;28;20081;-62
2022/10/13 13:03:55;;;;;;;44.10;29.00;;;;;;;;;;4973303;28;20031;-62
2022/10/13 13:06:23;;;;;;;46.72;27.98;;;;;;;;;;4972302;28;20041;-62
2022/10/13 13:09:05;;;;;;;43.17;26.50;;;;;;;;;;4971010;28;20795;-62
2022/10/13 13:11:35;;;;;;;36.17;26.50;;;;;;;;;;4970038;28;20034;-62
2022/10/13 13:14:18;;;;;;;43.35;26.20;;;;;;;;;;4973611;28;20493;-62
2022/10/13 13:17:00;;;;;;;44.33;28.17;;;;;;;;;;4966855;28;20042;-62
2022/10/13 13:19:29;;;;;;;41.97;25.98;;;;;;;;;;4972094;28;20034;-62
2022/10/13 13:21:54;;;;;;;45.50;27.67;;;;;;;;;;4968988;28;20940;-62
2022/10/13 13:24:20;;;;;;;41.72;26.15;;;;;;;;;;4969293;28;20038;-62
2022/10/13 13:26:45;;;;;;;44.70;26.55;;;;;;;;;;4972458;28;20035;-61
2022/10/13 13:29:10;;;;;;;46.05;29.08;;;;;;;;;;4975787;28;20065;-62
2022/10/13 13:31:35;;;;;;;47.65;28.33;;;;;;;;;;4972010;28;20480;-63
2022/10/13 13:34:01;;;;;;;42.83;26.15;;;;;;;;;;4970324;28;20126;-64
2022/10/13 13:36:27;;;;;;;43.70;25.38;;;;;;;;;;4954909;28;20045;-63
2022/10/13 13:38:52;;;;;;;37.60;24.73;;;;;;;;;;4973911;28;20081;-62
2022/10/13 13:41:18;;;;;;;48.85;26.83;;;;;;;;;;4972969;28;20174;-62
2022/10/13 13:43:43;;;;;;;36.72;24.35;;;;;;;;;;4974666;28;20045;-62
2022/10/13 13:46:13;;;;;;;47.13;28.55;;;;;;;;;;4973012;28;20060;-63
2022/10/13 13:48:38;;;;;;;39.30;24.83;;;;;;;;;;4973107;28;20029;-63
2022/10/13 13:51:03;;;;;;;38.58;27.15;;;;;;;;;;4969576;28;20026;-64
2022/10/13 13:53:28;;;;;;;42.78;25.83;;;;;;;;;;4969274;28;20048;-64
2022/10/13 13:55:54;;;;;;;40.35;26.38;;;;;;;;;;4961872;28;20026;-63
2022/10/13 13:58:19;;;;;;;37.70;26.63;;;;;;;;;;4957076;28;20540;-63
2022/10/13 14:00:45;;;;;;;36.33;23.80;;;;;;;;;;4955626;28;20068;-64
2022/10/13 14:03:10;;;;;;;43.45;25.80;;;;;;;;;;4969547;28;20030;-65
2022/10/13 14:05:40;;;;;;;44.45;25.80;;;;;;;;;;4952195;28;20038;-64
2022/10/13 14:08:05;;;;;;;42.95;27.23;;;;;;;;;;4973211;28;20030;-64
2022/10/13 14:10:30;;;;;;;39.78;25.48;;;;;;;;;;4970096;28;20026;-65
2022/10/13 14:12:56;;;;;;;42.55;25.98;;;;;;;;;;4968615;28;20050;-63
2022/10/13 14:15:21;;;;;;;40.28;25.30;;;;;;;;;;4971984;28;20023;-63
2022/10/13 14:17:46;;;;;;;46.55;28.50;;;;;;;;;;4969251;28;20566;-64
2022/10/13 14:20:11;;;;;;;38.80;26.58;;;;;;;;;;4970660;28;20053;-63
2022/10/13 14:22:37;;;;;;;44.47;25.58;;;;;;;;;;4972646;28;20950;-62
2022/10/13 14:25:03;;;;;;;40.17;26.33;;;;;;;;;;4973426;28;20027;-63